RJOE(METAR)
10/16 18:00
METAR RJOE 160900Z 12002KT 9999 FEW020 BKN050 20/08 Q1023 RMK 1CU020
5SC050 A3021=
戻る
トップページへ戻る
IMOC Co,.Ltd.